createdAt,value
2022-10-09T00:01:11.914Z,31.60
2022-10-09T00:03:40.720Z,31.90
2022-10-09T00:06:13.160Z,30.80
2022-10-09T00:08:41.051Z,31.40
2022-10-09T00:11:10.053Z,31.70
2022-10-09T00:13:37.747Z,31.50
2022-10-09T00:16:07.232Z,30.80
2022-10-09T00:18:34.937Z,30.00
2022-10-09T00:21:02.391Z,29.50
2022-10-09T00:23:29.373Z,29.90
2022-10-09T00:25:58.714Z,30.30
2022-10-09T00:28:27.579Z,30.40
2022-10-09T00:30:58.471Z,29.70
2022-10-09T00:33:25.705Z,30.10
2022-10-09T00:35:52.877Z,30.10
2022-10-09T00:38:19.984Z,30.20
2022-10-09T00:40:47.313Z,30.40
2022-10-09T00:43:18.358Z,30.90
2022-10-09T00:45:50.556Z,31.10
2022-10-09T00:48:18.760Z,31.20
2022-10-09T00:50:53.153Z,31.20
2022-10-09T00:53:22.908Z,30.60
2022-10-09T00:55:50.171Z,30.50
2022-10-09T00:58:17.378Z,30.80
2022-10-09T01:00:44.801Z,31.10
2022-10-09T01:03:12.133Z,30.20
2022-10-09T01:05:48.394Z,29.90
2022-10-09T01:08:30.068Z,29.90
2022-10-09T01:11:09.683Z,30.10
2022-10-09T01:13:56.025Z,30.00
2022-10-09T01:16:28.681Z,29.30
2022-10-09T01:19:04.597Z,30.60
2022-10-09T01:21:38.626Z,30.50
2022-10-09T01:24:35.777Z,29.70
2022-10-09T01:27:23.980Z,30.40
2022-10-09T01:30:00.263Z,30.20
2022-10-09T01:32:33.674Z,30.50
2022-10-09T01:35:01.426Z,30.70
2022-10-09T01:37:30.768Z,30.40
2022-10-09T01:39:58.702Z,30.20
2022-10-09T01:42:27.699Z,30.30
2022-10-09T01:44:54.659Z,30.80
2022-10-09T01:47:22.159Z,30.70
2022-10-09T01:50:02.200Z,31.40
2022-10-09T01:52:48.672Z,31.20
2022-10-09T01:55:49.272Z,30.60
2022-10-09T01:58:33.828Z,30.20
2022-10-09T02:01:09.055Z,29.80
2022-10-09T02:03:38.579Z,30.00
2022-10-09T02:06:07.382Z,29.60
2022-10-09T02:08:37.036Z,29.90
2022-10-09T02:11:04.543Z,30.30
2022-10-09T02:13:33.441Z,31.10
2022-10-09T02:16:36.848Z,31.70
2022-10-09T02:19:32.184Z,31.10
2022-10-09T02:22:12.170Z,30.50
2022-10-09T02:24:40.440Z,30.20
2022-10-09T02:27:08.019Z,30.00
2022-10-09T02:29:35.278Z,29.90
2022-10-09T02:32:02.233Z,30.30
2022-10-09T02:34:29.306Z,30.00
2022-10-09T02:36:56.393Z,30.10
2022-10-09T02:39:23.744Z,30.40
2022-10-09T02:41:50.758Z,30.50
2022-10-09T02:44:17.810Z,30.00
2022-10-09T02:46:44.790Z,30.20
2022-10-09T02:49:11.816Z,30.20
2022-10-09T02:51:38.960Z,30.80
2022-10-09T02:54:06.383Z,30.40
2022-10-09T02:56:37.977Z,29.80
2022-10-09T02:59:06.105Z,29.60
2022-10-09T03:01:33.200Z,30.20
2022-10-09T03:04:00.268Z,29.70
2022-10-09T03:06:28.728Z,30.10
2022-10-09T03:08:56.631Z,29.80
2022-10-09T03:11:24.865Z,30.40
2022-10-09T03:13:52.280Z,30.90
2022-10-09T03:16:21.345Z,31.10
2022-10-09T03:18:49.893Z,30.40
2022-10-09T03:21:20.742Z,30.50
2022-10-09T03:23:47.846Z,30.20
2022-10-09T03:26:17.975Z,30.20
2022-10-09T03:28:50.664Z,30.80
2022-10-09T03:31:39.637Z,31.40
2022-10-09T03:34:06.642Z,31.60
2022-10-09T03:36:33.710Z,31.40
2022-10-09T03:39:00.586Z,31.40
2022-10-09T03:41:27.633Z,32.00
2022-10-09T03:43:54.575Z,32.30
2022-10-09T03:46:21.749Z,32.20
2022-10-09T03:48:48.698Z,32.10
2022-10-09T03:51:15.768Z,31.50
2022-10-09T03:53:42.881Z,31.70
2022-10-09T03:56:09.845Z,31.70
2022-10-09T03:58:36.793Z,31.60
2022-10-09T04:01:03.863Z,31.20
2022-10-09T04:03:30.930Z,30.50
2022-10-09T04:05:58.039Z,30.70
2022-10-09T04:08:25.078Z,30.80
2022-10-09T04:10:59.753Z,30.60
2022-10-09T04:13:27.096Z,30.40
2022-10-09T04:15:54.707Z,30.60
2022-10-09T04:18:22.315Z,31.20
2022-10-09T04:20:51.147Z,31.60
2022-10-09T04:23:19.586Z,31.50
2022-10-09T04:25:46.740Z,31.60
2022-10-09T04:28:14.126Z,31.40
2022-10-09T04:30:42.128Z,31.00
2022-10-09T04:33:12.696Z,30.90
2022-10-09T04:35:49.847Z,30.40
2022-10-09T04:38:16.957Z,30.60
2022-10-09T04:40:44.090Z,30.40
2022-10-09T04:43:12.224Z,30.60
2022-10-09T04:45:42.187Z,31.10
2022-10-09T04:48:09.207Z,31.60
2022-10-09T04:50:39.189Z,31.30
2022-10-09T04:53:06.132Z,31.10
2022-10-09T04:55:33.042Z,31.10
2022-10-09T04:58:00.009Z,30.60
2022-10-09T05:00:26.889Z,31.30
2022-10-09T05:02:53.864Z,31.30
2022-10-09T05:05:20.784Z,31.80
2022-10-09T05:07:47.956Z,31.70
2022-10-09T05:10:14.961Z,32.10
2022-10-09T05:12:42.059Z,31.60
2022-10-09T05:15:10.680Z,31.60
2022-10-09T05:17:39.190Z,31.70
2022-10-09T05:20:06.622Z,32.00
2022-10-09T05:22:33.554Z,31.90
2022-10-09T05:25:00.547Z,32.00
2022-10-09T05:27:27.571Z,31.70
2022-10-09T05:29:54.480Z,31.20
2022-10-09T05:32:23.065Z,31.20
2022-10-09T05:34:49.968Z,31.10
2022-10-09T05:37:16.857Z,31.30
2022-10-09T05:39:43.789Z,30.80
2022-10-09T05:42:10.951Z,31.50
2022-10-09T05:44:37.955Z,31.90
2022-10-09T05:47:04.943Z,32.30
2022-10-09T05:49:31.933Z,32.30
2022-10-09T05:51:59.335Z,32.50
2022-10-09T05:54:26.539Z,32.40
2022-10-09T05:56:53.482Z,32.10
2022-10-09T05:59:20.465Z,32.50
2022-10-09T06:01:50.262Z,33.10
2022-10-09T06:04:23.314Z,33.50
2022-10-09T06:06:50.886Z,34.10
2022-10-09T06:09:22.278Z,34.00
2022-10-09T06:11:51.002Z,33.90
2022-10-09T06:14:20.797Z,33.80
2022-10-09T06:16:47.927Z,33.70
2022-10-09T06:19:17.200Z,33.60
2022-10-09T06:21:45.128Z,34.20
2022-10-09T06:24:28.270Z,34.50
2022-10-09T06:26:57.340Z,34.70
2022-10-09T06:29:24.610Z,35.20
2022-10-09T06:31:56.454Z,34.80
2022-10-09T06:34:23.809Z,34.50
2022-10-09T06:36:50.931Z,34.20
2022-10-09T06:39:20.685Z,34.10
2022-10-09T06:41:50.596Z,33.90
2022-10-09T06:44:17.568Z,34.10
2022-10-09T06:46:48.659Z,34.60
2022-10-09T06:49:15.468Z,34.90
2022-10-09T06:51:42.466Z,35.40
2022-10-09T06:54:14.318Z,35.90
2022-10-09T06:56:41.329Z,35.60
2022-10-09T06:59:08.909Z,35.50
2022-10-09T07:01:35.922Z,35.70
2022-10-09T07:04:07.139Z,35.60
2022-10-09T07:06:37.751Z,36.20
2022-10-09T07:09:07.533Z,36.30
2022-10-09T07:11:37.442Z,37.10
2022-10-09T07:14:06.717Z,36.60
2022-10-09T07:16:39.195Z,36.70
2022-10-09T07:19:08.466Z,36.60
2022-10-09T07:21:36.089Z,36.20
2022-10-09T07:24:05.357Z,35.90
2022-10-09T07:26:36.779Z,35.60
2022-10-09T07:29:05.969Z,35.90
2022-10-09T07:31:32.917Z,35.90
2022-10-09T07:34:00.342Z,36.00
2022-10-09T07:36:27.437Z,36.10
2022-10-09T07:38:56.725Z,36.50
2022-10-09T07:41:26.287Z,36.50
2022-10-09T07:43:53.686Z,37.00
2022-10-09T07:46:22.434Z,36.80
2022-10-09T07:48:50.113Z,36.80
2022-10-09T07:51:19.942Z,37.30
2022-10-09T07:53:49.483Z,37.50
2022-10-09T07:56:22.034Z,38.20
2022-10-09T07:58:53.908Z,37.90
2022-10-09T08:01:25.779Z,38.60
2022-10-09T08:03:52.733Z,38.50
2022-10-09T08:06:20.257Z,38.40
2022-10-09T08:08:52.270Z,38.30
2022-10-09T08:11:20.472Z,38.30
2022-10-09T08:13:49.657Z,38.50
2022-10-09T08:16:18.460Z,38.70
2022-10-09T08:18:46.105Z,38.40
2022-10-09T08:21:16.540Z,39.00
2022-10-09T08:23:45.595Z,39.20
2022-10-09T08:26:18.114Z,39.10
2022-10-09T08:28:49.997Z,38.70
2022-10-09T08:31:18.498Z,38.60
2022-10-09T08:33:45.660Z,38.80
2022-10-09T08:36:15.358Z,39.10
2022-10-09T08:38:48.224Z,38.90
2022-10-09T08:41:18.547Z,39.10
2022-10-09T08:43:50.205Z,38.80
2022-10-09T08:46:35.538Z,38.80
2022-10-09T08:49:04.102Z,39.30
2022-10-09T08:51:36.608Z,40.30
2022-10-09T08:54:20.131Z,40.90
2022-10-09T08:56:49.885Z,40.60
2022-10-09T08:59:17.051Z,42.00
2022-10-09T09:02:25.719Z,43.00
2022-10-09T09:05:24.521Z,42.80
2022-10-09T09:08:17.459Z,42.20
2022-10-09T09:11:17.117Z,41.50
2022-10-09T09:13:53.459Z,41.50
2022-10-09T09:16:48.768Z,41.30
2022-10-09T09:19:44.562Z,41.00
2022-10-09T09:22:16.074Z,42.20
2022-10-09T09:24:51.523Z,42.60
2022-10-09T09:27:21.402Z,42.70
2022-10-09T09:30:06.877Z,43.10
2022-10-09T09:32:34.053Z,41.90
2022-10-09T09:35:28.900Z,41.40
2022-10-09T09:37:56.352Z,40.60
2022-10-09T09:40:38.477Z,40.90
2022-10-09T09:43:18.959Z,40.60
2022-10-09T09:45:47.099Z,40.10
2022-10-09T09:48:22.012Z,40.30
2022-10-09T09:51:10.069Z,40.80
2022-10-09T09:53:43.660Z,39.60
2022-10-09T09:56:11.047Z,39.40
2022-10-09T09:58:47.673Z,39.10
2022-10-09T10:01:29.529Z,38.70
2022-10-09T10:03:59.244Z,39.00
2022-10-09T10:06:31.913Z,38.80
2022-10-09T10:09:04.959Z,39.70
2022-10-09T10:11:35.231Z,40.60
2022-10-09T10:14:09.638Z,40.10
2022-10-09T10:16:38.938Z,39.60
2022-10-09T10:19:06.849Z,39.00
2022-10-09T10:22:00.408Z,38.70
2022-10-09T10:24:44.628Z,37.80
2022-10-09T10:27:20.764Z,37.80
2022-10-09T10:29:50.772Z,38.10
2022-10-09T10:32:22.873Z,38.50
2022-10-09T10:35:00.355Z,38.70
2022-10-09T10:37:42.521Z,38.40
2022-10-09T10:40:37.943Z,38.40
2022-10-09T10:43:21.977Z,39.00
2022-10-09T10:46:13.151Z,39.90
2022-10-09T10:48:48.109Z,41.00
2022-10-09T10:51:18.161Z,42.10
2022-10-09T10:54:12.287Z,42.10
2022-10-09T10:56:56.562Z,42.00
2022-10-09T10:59:23.888Z,42.50
2022-10-09T11:02:32.741Z,42.50
2022-10-09T11:05:18.810Z,43.20
2022-10-09T11:08:08.193Z,43.40
2022-10-09T11:10:50.984Z,43.70
2022-10-09T11:13:29.859Z,43.20
2022-10-09T11:16:34.408Z,42.80
2022-10-09T11:19:07.225Z,42.80
2022-10-09T11:22:08.673Z,42.10
2022-10-09T11:24:57.030Z,42.00
2022-10-09T11:27:50.184Z,42.10
2022-10-09T11:30:18.719Z,41.10
2022-10-09T11:32:58.045Z,41.10
2022-10-09T11:35:29.505Z,41.10
2022-10-09T11:38:03.923Z,40.80
2022-10-09T11:40:32.896Z,40.20
2022-10-09T11:43:26.168Z,40.10
2022-10-09T11:46:05.184Z,40.20
2022-10-09T11:49:05.890Z,39.40
2022-10-09T11:51:36.113Z,39.70
2022-10-09T11:54:05.186Z,40.20
2022-10-09T11:56:32.492Z,40.50
2022-10-09T11:59:05.870Z,40.20
2022-10-09T12:01:39.725Z,40.20
2022-10-09T12:04:12.546Z,40.20
2022-10-09T12:06:55.501Z,40.90
2022-10-09T12:09:48.569Z,41.10
2022-10-09T12:12:18.562Z,40.60
2022-10-09T12:14:48.789Z,40.20
2022-10-09T12:17:24.599Z,39.90
2022-10-09T12:20:00.954Z,39.30
2022-10-09T12:23:01.497Z,39.40
2022-10-09T12:25:42.175Z,39.20
2022-10-09T12:28:24.379Z,39.10
2022-10-09T12:30:52.756Z,38.50
2022-10-09T12:33:39.576Z,38.60
2022-10-09T12:36:13.792Z,38.40
2022-10-09T12:38:41.758Z,38.50
2022-10-09T12:41:22.218Z,38.80
2022-10-09T12:43:51.991Z,38.80
2022-10-09T12:46:39.356Z,38.80
2022-10-09T12:49:16.645Z,38.50
2022-10-09T12:51:55.302Z,38.80
2022-10-09T12:54:25.257Z,38.70
2022-10-09T12:56:54.543Z,38.90
2022-10-09T12:59:23.494Z,39.20
2022-10-09T13:01:55.709Z,39.40
2022-10-09T13:04:35.850Z,39.60
2022-10-09T13:07:07.826Z,39.70
2022-10-09T13:09:37.947Z,39.70
2022-10-09T13:12:19.751Z,40.50
2022-10-09T13:14:55.440Z,40.60
2022-10-09T13:17:25.753Z,40.10
2022-10-09T13:19:54.920Z,39.90
2022-10-09T13:22:26.896Z,40.30
2022-10-09T13:24:56.752Z,40.70
2022-10-09T13:27:31.345Z,41.40
2022-10-09T13:29:58.799Z,42.10
2022-10-09T13:32:25.786Z,41.80
2022-10-09T13:34:55.442Z,42.30
2022-10-09T13:37:23.675Z,42.50
2022-10-09T13:39:55.571Z,41.60
2022-10-09T13:42:25.937Z,42.10
2022-10-09T13:44:53.368Z,42.10
2022-10-09T13:47:24.491Z,41.70
2022-10-09T13:49:52.073Z,42.60
2022-10-09T13:52:20.263Z,42.50
2022-10-09T13:54:48.843Z,43.20
2022-10-09T13:57:15.749Z,42.70
2022-10-09T13:59:42.852Z,42.40
2022-10-09T14:02:11.530Z,42.20
2022-10-09T14:04:40.255Z,42.40
2022-10-09T14:07:07.289Z,42.80
2022-10-09T14:09:34.193Z,43.30
2022-10-09T14:12:01.149Z,43.50
2022-10-09T14:14:28.155Z,42.90
2022-10-09T14:16:55.108Z,43.00
2022-10-09T14:19:27.390Z,43.00
2022-10-09T14:21:58.315Z,43.50
2022-10-09T14:24:26.334Z,43.10
2022-10-09T14:26:54.468Z,42.70
2022-10-09T14:29:21.463Z,42.30
2022-10-09T14:31:51.435Z,42.20
2022-10-09T14:34:18.467Z,42.40
2022-10-09T14:36:45.687Z,42.00
2022-10-09T14:39:12.991Z,42.20
2022-10-09T14:41:40.003Z,41.90
2022-10-09T14:44:07.461Z,41.50
2022-10-09T14:46:35.100Z,41.10
2022-10-09T14:49:07.480Z,41.50
2022-10-09T14:51:39.289Z,41.50
2022-10-09T14:54:07.447Z,41.90
2022-10-09T14:56:35.190Z,42.50
2022-10-09T14:59:04.242Z,42.70
2022-10-09T15:01:32.282Z,41.90
2022-10-09T15:04:04.099Z,41.30
2022-10-09T15:06:31.415Z,41.30
2022-10-09T15:09:03.222Z,41.40
2022-10-09T15:11:34.409Z,41.60
2022-10-09T15:14:02.250Z,41.50
2022-10-09T15:16:29.600Z,41.40
2022-10-09T15:18:57.177Z,41.40
2022-10-09T15:21:27.224Z,41.20
2022-10-09T15:23:55.442Z,40.80
2022-10-09T15:26:23.490Z,40.30
2022-10-09T15:28:50.570Z,39.90
2022-10-09T15:31:22.248Z,39.60
2022-10-09T15:33:51.686Z,39.60
2022-10-09T15:36:19.748Z,39.30
2022-10-09T15:38:47.329Z,38.90
2022-10-09T15:41:26.195Z,39.00
2022-10-09T15:43:59.183Z,38.90
2022-10-09T15:46:26.506Z,39.10
2022-10-09T15:48:53.839Z,39.10
2022-10-09T15:51:23.209Z,39.10
2022-10-09T15:53:51.732Z,39.10
2022-10-09T15:56:26.970Z,39.10
2022-10-09T15:58:56.297Z,39.10
2022-10-09T16:01:26.620Z,39.10
2022-10-09T16:03:53.859Z,39.10
2022-10-09T16:06:23.559Z,38.90
2022-10-09T16:08:51.414Z,38.60
2022-10-09T16:11:21.890Z,38.60
2022-10-09T16:13:52.380Z,38.60
2022-10-09T16:16:21.747Z,38.50
2022-10-09T16:18:49.333Z,38.40
2022-10-09T16:21:25.752Z,38.30
2022-10-09T16:23:58.109Z,38.40
2022-10-09T16:26:28.248Z,38.50
2022-10-09T16:28:55.263Z,38.50
2022-10-09T16:31:25.025Z,38.40
2022-10-09T16:33:54.328Z,38.50
2022-10-09T16:36:21.608Z,38.40
2022-10-09T16:38:49.046Z,38.30
2022-10-09T16:41:18.653Z,38.40
2022-10-09T16:43:47.299Z,38.40
2022-10-09T16:46:29.453Z,38.20
2022-10-09T16:48:58.285Z,38.20
2022-10-09T16:51:33.642Z,38.20
2022-10-09T16:54:02.314Z,38.10
2022-10-09T16:56:36.390Z,38.00
2022-10-09T16:59:07.199Z,38.00
2022-10-09T17:01:38.159Z,38.00
2022-10-09T17:04:05.411Z,37.90
2022-10-09T17:06:32.471Z,37.90
2022-10-09T17:09:00.155Z,37.80
2022-10-09T17:11:29.986Z,37.80
2022-10-09T17:13:57.616Z,37.70
2022-10-09T17:16:28.721Z,37.50
2022-10-09T17:18:55.996Z,37.50
2022-10-09T17:21:23.465Z,37.40
2022-10-09T17:23:55.416Z,37.30
2022-10-09T17:26:23.254Z,37.30
2022-10-09T17:28:51.025Z,37.30
2022-10-09T17:31:24.404Z,37.30
2022-10-09T17:33:56.086Z,37.30
2022-10-09T17:36:26.617Z,37.20
2022-10-09T17:38:53.850Z,37.10
2022-10-09T17:41:23.850Z,37.10
2022-10-09T17:43:52.993Z,37.00
2022-10-09T17:46:20.188Z,36.90
2022-10-09T17:48:53.264Z,37.00
2022-10-09T17:51:27.845Z,37.00
2022-10-09T17:54:01.430Z,37.00
2022-10-09T17:56:30.577Z,37.00
2022-10-09T17:59:00.093Z,37.10
2022-10-09T18:01:27.375Z,37.00
2022-10-09T18:03:54.488Z,37.00
2022-10-09T18:06:23.994Z,36.90
2022-10-09T18:08:53.200Z,36.90
2022-10-09T18:11:22.483Z,36.90
2022-10-09T18:13:50.189Z,36.80
2022-10-09T18:16:25.118Z,36.70
2022-10-09T18:18:52.025Z,36.70
2022-10-09T18:21:19.073Z,36.70
2022-10-09T18:23:47.590Z,36.70
2022-10-09T18:26:17.274Z,36.70
2022-10-09T18:28:48.182Z,36.70
2022-10-09T18:31:21.308Z,36.70
2022-10-09T18:33:50.652Z,36.70
2022-10-09T18:36:24.055Z,36.70
2022-10-09T18:38:53.912Z,36.70
2022-10-09T18:41:22.545Z,36.70
2022-10-09T18:43:50.990Z,36.70
2022-10-09T18:46:21.265Z,36.60
2022-10-09T18:48:48.572Z,36.60
2022-10-09T18:51:18.404Z,36.60
2022-10-09T18:53:49.955Z,36.60
2022-10-09T18:56:19.231Z,36.70
2022-10-09T18:58:48.295Z,36.60
2022-10-09T19:01:15.828Z,36.50
2022-10-09T19:03:45.986Z,36.50
2022-10-09T19:06:16.815Z,36.60
2022-10-09T19:08:43.971Z,36.60
2022-10-09T19:11:14.426Z,36.60
2022-10-09T19:13:42.847Z,36.40
2022-10-09T19:16:10.122Z,36.40
2022-10-09T19:18:38.086Z,36.20
2022-10-09T19:21:05.332Z,36.40
2022-10-09T19:23:32.303Z,36.40
2022-10-09T19:26:00.521Z,36.40
2022-10-09T19:28:37.727Z,36.30
2022-10-09T19:31:06.654Z,36.30
2022-10-09T19:33:34.562Z,36.00
2022-10-09T19:36:02.123Z,35.90
2022-10-09T19:38:29.317Z,35.90
2022-10-09T19:40:56.605Z,36.00
2022-10-09T19:43:25.213Z,36.10
2022-10-09T19:46:02.444Z,36.00
2022-10-09T19:48:29.614Z,36.00
2022-10-09T19:50:56.823Z,36.10
2022-10-09T19:53:23.991Z,36.10
2022-10-09T19:55:51.481Z,36.10
2022-10-09T19:58:20.170Z,36.10
2022-10-09T20:00:47.499Z,36.10
2022-10-09T20:03:17.121Z,35.90
2022-10-09T20:05:44.014Z,35.90
2022-10-09T20:08:12.184Z,35.80
2022-10-09T20:10:39.862Z,35.90
2022-10-09T20:13:10.267Z,35.80
2022-10-09T20:15:43.029Z,35.80
2022-10-09T20:18:10.022Z,35.80
2022-10-09T20:20:38.789Z,35.70
2022-10-09T20:23:05.790Z,35.70
2022-10-09T20:25:32.876Z,35.70
2022-10-09T20:27:59.944Z,35.80
2022-10-09T20:30:26.877Z,35.80
2022-10-09T20:32:59.185Z,35.80
2022-10-09T20:35:26.795Z,35.80
2022-10-09T20:37:53.674Z,35.80
2022-10-09T20:40:22.563Z,35.80
2022-10-09T20:42:50.704Z,35.70
2022-10-09T20:45:18.364Z,35.70
2022-10-09T20:47:45.232Z,35.70
2022-10-09T20:50:12.172Z,35.70
2022-10-09T20:52:39.065Z,35.60
2022-10-09T20:55:06.436Z,35.50
2022-10-09T20:57:33.366Z,35.50
2022-10-09T21:00:00.246Z,35.60
2022-10-09T21:02:27.152Z,35.70
2022-10-09T21:04:54.092Z,35.50
2022-10-09T21:07:20.998Z,35.30
2022-10-09T21:09:48.153Z,35.40
2022-10-09T21:12:15.140Z,35.20
2022-10-09T21:14:42.046Z,35.20
2022-10-09T21:17:09.156Z,35.30
2022-10-09T21:19:36.307Z,35.30
2022-10-09T21:22:03.335Z,35.20
2022-10-09T21:24:30.411Z,35.10
2022-10-09T21:26:57.553Z,35.00
2022-10-09T21:29:24.707Z,35.00
2022-10-09T21:31:51.609Z,34.80
2022-10-09T21:34:18.536Z,34.50
2022-10-09T21:37:16.431Z,34.70
2022-10-09T21:39:35.181Z,34.60
2022-10-09T21:42:02.282Z,34.60
2022-10-09T21:44:30.173Z,34.60
2022-10-09T21:46:57.051Z,34.40
2022-10-09T21:49:27.313Z,34.40
2022-10-09T21:51:55.243Z,34.20
2022-10-09T21:54:22.151Z,34.20
2022-10-09T21:56:49.078Z,34.20
2022-10-09T21:59:16.185Z,34.30
2022-10-09T22:01:43.226Z,34.30
2022-10-09T22:04:10.209Z,34.10
2022-10-09T22:06:37.141Z,34.30
2022-10-09T22:09:04.202Z,34.30
2022-10-09T22:11:31.138Z,34.00
2022-10-09T22:13:58.260Z,33.80
2022-10-09T22:16:25.171Z,34.10
2022-10-09T22:18:52.209Z,34.00
2022-10-09T22:21:19.901Z,33.70
2022-10-09T22:23:47.079Z,34.00
2022-10-09T22:26:17.934Z,33.70
2022-10-09T22:28:46.160Z,33.70
2022-10-09T22:31:19.348Z,33.40
2022-10-09T22:33:54.665Z,33.60
2022-10-09T22:36:25.681Z,33.70
2022-10-09T22:38:57.795Z,33.80
2022-10-09T22:41:28.332Z,33.90
2022-10-09T22:43:57.499Z,33.80
2022-10-09T22:46:30.717Z,34.00
2022-10-09T22:48:58.258Z,33.80
2022-10-09T22:51:27.717Z,34.00
2022-10-09T22:53:59.116Z,34.10
2022-10-09T22:56:32.851Z,33.90
2022-10-09T22:59:00.408Z,33.80
2022-10-09T23:01:48.565Z,33.80
2022-10-09T23:04:18.309Z,34.10
2022-10-09T23:06:48.840Z,34.20
2022-10-09T23:09:15.817Z,34.00
2022-10-09T23:11:43.231Z,33.90
2022-10-09T23:14:11.534Z,33.80
2022-10-09T23:16:39.276Z,33.80
2022-10-09T23:19:07.299Z,34.00
2022-10-09T23:21:35.997Z,34.00
2022-10-09T23:24:03.273Z,33.80
2022-10-09T23:26:31.873Z,33.50
2022-10-09T23:29:00.972Z,33.20
2022-10-09T23:31:28.782Z,33.10
2022-10-09T23:33:56.660Z,33.10
2022-10-09T23:36:26.314Z,33.30
2022-10-09T23:38:53.893Z,33.40
2022-10-09T23:41:23.682Z,33.30
2022-10-09T23:43:50.901Z,33.40
2022-10-09T23:46:20.856Z,33.50
2022-10-09T23:48:48.642Z,33.50
2022-10-09T23:51:16.915Z,33.60
2022-10-09T23:53:44.403Z,33.70
2022-10-09T23:56:18.563Z,33.60
2022-10-09T23:58:45.982Z,33.80
